Time;durP1;ratioP1;P1;durP2;ratioP2;P2;SDS_P1;SDS_P2;PMS_P1;PMS_P2;Temp;Humidity;BMP_temperature;BMP_pressure;BME280_temperature;BME280_humidity;BME280_pressure;Samples;Min_cycle;Max_cycle;Signal;HPM_P1;HPM_P2
2021/03/25 00:01:44;;;;;;;83.37;47.67;;;;;;;2.39;74.38;101767.80;1751949;81;21213;-72
2021/03/25 00:04:11;;;;;;;82.55;46.85;;;;;;;2.37;74.31;101777.19;1751897;81;21253;-71
2021/03/25 00:06:43;;;;;;;83.45;46.63;;;;;;;2.33;74.38;101770.85;1752056;81;21186;-72
2021/03/25 00:09:20;;;;;;;80.38;44.33;;;;;;;2.29;74.40;101779.21;1751892;81;21943;-72
2021/03/25 00:11:47;;;;;;;75.70;45.45;;;;;;;2.25;74.39;101775.88;1748117;80;21194;-72
2021/03/25 00:14:15;;;;;;;78.50;45.08;;;;;;;2.22;74.52;101779.54;1751917;81;21203;-72
2021/03/25 00:16:42;;;;;;;77.97;44.13;;;;;;;2.21;74.62;101782.02;1751850;81;21210;-72
2021/03/25 00:19:09;;;;;;;82.37;44.65;;;;;;;2.19;74.63;101769.31;1751952;81;21670;-72
2021/03/25 00:21:37;;;;;;;80.12;45.65;;;;;;;2.15;74.63;101779.86;1752015;81;21903;-72
2021/03/25 00:24:09;;;;;;;79.55;45.63;;;;;;;2.11;74.65;101782.62;1751762;81;21150;-72
2021/03/25 00:26:39;;;;;;;72.78;44.40;;;;;;;2.06;74.71;101778.77;1751971;81;21199;-72
2021/03/25 00:29:09;;;;;;;79.80;46.48;;;;;;;2.05;74.82;101778.67;1751854;81;21642;-72
2021/03/25 00:31:39;;;;;;;73.47;44.13;;;;;;;2.04;74.92;101782.94;1751942;81;21198;-73
2021/03/25 00:34:07;;;;;;;76.00;44.20;;;;;;;2.02;74.98;101771.53;1751862;81;21832;-73
2021/03/25 00:36:36;;;;;;;77.47;45.78;;;;;;;2.02;75.03;101768.94;1751748;81;21222;-73
2021/03/25 00:39:09;;;;;;;80.40;44.63;;;;;;;2.04;75.12;101773.84;1751830;81;21171;-73
2021/03/25 00:41:36;;;;;;;79.10;46.02;;;;;;;2.05;75.13;101773.08;1726683;81;21829;-72
2021/03/25 00:44:07;;;;;;;77.65;44.18;;;;;;;2.07;75.26;101775.39;1751847;81;21143;-73
2021/03/25 00:46:35;;;;;;;75.60;43.23;;;;;;;2.12;75.51;101774.42;1751251;81;21844;-72
2021/03/25 00:49:02;;;;;;;73.72;42.48;;;;;;;2.19;75.59;101775.40;1751825;81;21182;-73
2021/03/25 00:51:30;;;;;;;74.92;44.03;;;;;;;2.27;75.57;101775.97;1751694;81;21219;-73
2021/03/25 00:53:58;;;;;;;74.85;43.60;;;;;;;2.34;75.61;101772.64;1751830;81;21158;-73
2021/03/25 00:56:25;;;;;;;72.10;43.15;;;;;;;2.45;75.65;101773.85;1751691;81;21728;-71
2021/03/25 00:58:52;;;;;;;69.95;39.78;;;;;;;2.52;75.59;101774.41;1751825;81;22956;-71
2021/03/25 01:01:21;;;;;;;74.87;43.20;;;;;;;2.60;75.61;101768.48;1751725;81;21194;-73
2021/03/25 01:03:48;;;;;;;72.90;41.70;;;;;;;2.70;75.61;101773.58;1751806;81;21163;-72
2021/03/25 01:06:15;;;;;;;70.08;41.85;;;;;;;2.76;75.50;101767.92;1751744;81;21205;-72
2021/03/25 01:08:55;;;;;;;68.87;40.52;;;;;;;2.84;75.49;101771.07;1752024;81;21196;-72
2021/03/25 01:11:27;;;;;;;69.37;41.63;;;;;;;2.89;75.44;101760.20;1751806;81;21948;-72
2021/03/25 01:14:02;;;;;;;74.12;42.55;;;;;;;2.94;75.37;101764.83;1751165;80;21183;-71
2021/03/25 01:16:42;;;;;;;75.52;43.85;;;;;;;2.97;75.35;101763.36;1751296;81;21660;-72
2021/03/25 01:19:15;;;;;;;74.40;42.98;;;;;;;3.01;75.33;101763.19;1751307;80;21154;-71
2021/03/25 01:21:42;;;;;;;71.82;41.90;;;;;;;3.03;75.32;101755.98;1739595;81;21142;-71
2021/03/25 01:24:09;;;;;;;69.32;41.15;;;;;;;3.07;75.35;101764.50;1751311;80;21829;-71
2021/03/25 01:26:37;;;;;;;72.10;42.13;;;;;;;3.08;75.29;101762.43;1751211;80;21218;-71
2021/03/25 01:29:05;;;;;;;72.30;42.45;;;;;;;3.12;75.29;101762.25;1751525;80;21130;-72
2021/03/25 01:31:32;;;;;;;79.25;43.58;;;;;;;3.18;75.32;101763.98;1751459;81;21221;-71
2021/03/25 01:34:21;;;;;;;69.95;41.60;;;;;;;3.21;75.29;101757.70;1751251;81;21151;-72
2021/03/25 01:36:48;;;;;;;72.60;41.68;;;;;;;3.25;75.26;101757.12;1751421;81;21952;-72
2021/03/25 01:39:15;;;;;;;68.07;40.98;;;;;;;3.27;75.14;101747.72;1751282;81;21206;-71
2021/03/25 01:41:43;;;;;;;67.97;40.70;;;;;;;3.28;75.12;101743.03;1751433;80;21197;-71
2021/03/25 01:44:38;;;;;;;68.95;41.13;;;;;;;3.30;75.03;101743.11;1751240;81;21264;-71
2021/03/25 01:47:06;;;;;;;69.75;41.75;;;;;;;3.29;74.89;101742.63;1745264;81;21576;-71
2021/03/25 01:49:33;;;;;;;68.10;42.03;;;;;;;3.25;74.83;101740.20;1751300;80;21821;-72
2021/03/25 01:52:26;;;;;;;70.17;42.60;;;;;;;3.24;74.83;101745.30;1751221;81;21156;-72
2021/03/25 01:55:36;;;;;;;68.15;41.42;;;;;;;3.23;74.86;101734.37;1751316;81;21189;-72
2021/03/25 01:58:31;;;;;;;65.57;39.70;;;;;;;3.21;74.75;101734.66;1750167;81;21233;-72
2021/03/25 02:01:09;;;;;;;73.20;41.70;;;;;;;3.10;74.65;101736.13;1751338;81;21196;-72
2021/03/25 02:03:44;;;;;;;76.85;42.13;;;;;;;3.03;74.69;101733.88;1751294;81;21893;-72
2021/03/25 02:06:48;;;;;;;72.95;42.33;;;;;;;2.96;74.75;101731.63;1726014;81;21616;-74
2021/03/25 02:09:26;;;;;;;73.87;41.48;;;;;;;2.89;74.79;101729.38;1750970;81;21205;-74
2021/03/25 02:12:17;;;;;;;75.97;42.75;;;;;;;2.80;74.82;101732.65;1750947;81;21644;-73
2021/03/25 02:15:07;;;;;;;73.57;40.38;;;;;;;2.70;74.87;101731.05;1751394;81;21669;-72
2021/03/25 02:18:00;;;;;;;67.60;41.53;;;;;;;2.62;75.02;101726.60;1751234;81;21892;-74
2021/03/25 02:20:57;;;;;;;69.32;41.53;;;;;;;2.54;75.01;101731.65;1751179;80;21213;-74
2021/03/25 02:23:38;;;;;;;71.57;42.65;;;;;;;2.46;75.08;101730.16;1751200;80;21609;-73
2021/03/25 02:26:10;;;;;;;72.00;42.33;;;;;;;2.38;75.20;101725.70;1751223;80;21187;-72
2021/03/25 02:29:00;;;;;;;77.72;42.25;;;;;;;2.32;75.30;101728.76;1751418;81;21182;-73
2021/03/25 02:31:33;;;;;;;77.67;43.92;;;;;;;2.29;75.42;101721.13;1751201;81;21833;-72
2021/03/25 02:34:05;;;;;;;75.67;43.95;;;;;;;2.25;75.54;101726.52;1751588;80;29034;-72
2021/03/25 02:36:38;;;;;;;74.40;44.85;;;;;;;2.24;75.67;101726.00;1751457;81;21175;-72
2021/03/25 02:39:11;;;;;;;74.58;43.23;;;;;;;2.23;75.77;101719.39;1751323;81;21190;-71
2021/03/25 02:41:48;;;;;;;74.35;43.15;;;;;;;2.23;75.81;101720.69;1751571;81;21249;-72
2021/03/25 02:44:29;;;;;;;80.87;43.92;;;;;;;2.20;75.84;101721.78;1751313;80;21975;-71
2021/03/25 02:47:09;;;;;;;74.47;43.25;;;;;;;2.17;75.84;101717.64;1726954;81;22522;-72
2021/03/25 02:49:47;;;;;;;80.92;43.08;;;;;;;2.13;75.97;101716.10;1751472;80;21229;-73
2021/03/25 02:52:24;;;;;;;73.70;43.73;;;;;;;2.11;75.98;101717.69;1751234;81;21718;-73
2021/03/25 02:54:52;;;;;;;77.67;43.68;;;;;;;2.10;76.06;101717.56;1751478;81;21103;-72
2021/03/25 02:57:24;;;;;;;77.85;43.42;;;;;;;2.08;76.09;101721.37;1751442;80;22845;-72
2021/03/25 02:59:51;;;;;;;74.00;43.65;;;;;;;2.06;76.12;101714.23;1751559;80;21150;-71
2021/03/25 03:02:35;;;;;;;73.12;44.30;;;;;;;2.03;76.14;101712.73;1751318;81;21206;-71
2021/03/25 03:05:07;;;;;;;78.00;43.83;;;;;;;2.00;76.14;101708.59;1751513;81;21137;-71
2021/03/25 03:07:44;;;;;;;75.78;44.40;;;;;;;1.97;76.18;101704.09;1751412;81;21194;-71
2021/03/25 03:10:15;;;;;;;82.40;42.80;;;;;;;1.93;76.19;101704.25;1751390;81;22767;-71
2021/03/25 03:12:46;;;;;;;79.73;44.77;;;;;;;1.90;76.18;101707.01;1751488;80;21260;-71
2021/03/25 03:15:27;;;;;;;73.83;43.75;;;;;;;1.85;76.26;101708.34;1751428;80;21218;-72
2021/03/25 03:18:19;;;;;;;74.92;42.95;;;;;;;1.83;76.40;101707.33;1751400;80;21529;-71
2021/03/25 03:20:57;;;;;;;76.15;43.42;;;;;;;1.79;76.47;101710.09;1751441;80;21221;-71
2021/03/25 03:23:25;;;;;;;75.83;43.65;;;;;;;1.77;76.51;101709.06;1751355;81;22001;-71
2021/03/25 03:25:54;;;;;;;74.10;44.13;;;;;;;1.75;76.54;101708.95;1751404;80;21612;-71
2021/03/25 03:28:46;;;;;;;81.87;45.43;;;;;;;1.73;76.58;101703.14;1751397;80;21600;-71
2021/03/25 03:31:17;;;;;;;76.80;43.68;;;;;;;1.71;76.69;101704.32;1751398;80;21225;-71
2021/03/25 03:33:49;;;;;;;80.32;44.88;;;;;;;1.70;76.79;101697.30;1751413;81;21503;-71
2021/03/25 03:36:21;;;;;;;77.85;43.60;;;;;;;1.69;76.90;101704.59;1751447;81;21880;-72
2021/03/25 03:39:03;;;;;;;83.05;45.17;;;;;;;1.68;76.93;101700.58;1751481;80;21134;-72
2021/03/25 03:41:34;;;;;;;84.65;44.10;;;;;;;1.68;76.99;101697.98;1751420;80;21226;-72
2021/03/25 03:44:05;;;;;;;78.87;44.08;;;;;;;1.67;77.03;101694.86;1751297;81;21282;-70
2021/03/25 03:46:32;;;;;;;81.08;45.88;;;;;;;1.67;77.08;101697.09;1734797;81;21236;-70
2021/03/25 03:49:16;;;;;;;81.15;46.53;;;;;;;1.68;77.18;101696.69;1751400;80;22068;-70
2021/03/25 03:51:53;;;;;;;79.95;44.15;;;;;;;1.70;77.27;101699.90;1751389;80;21193;-70
2021/03/25 03:54:21;;;;;;;72.55;43.38;;;;;;;1.70;77.24;101697.70;1751400;80;21217;-72
2021/03/25 03:57:02;;;;;;;77.35;44.70;;;;;;;1.71;77.26;101702.13;1751413;80;21142;-71
2021/03/25 03:59:56;;;;;;;79.05;45.38;;;;;;;1.69;77.25;101700.70;1751239;80;21194;-71
2021/03/25 04:02:37;;;;;;;77.22;43.95;;;;;;;1.70;77.30;101703.79;1751516;81;21954;-71
2021/03/25 04:05:18;;;;;;;84.80;45.65;;;;;;;1.70;77.32;101699.90;1751240;81;21189;-71
2021/03/25 04:07:48;;;;;;;79.12;44.70;;;;;;;1.72;77.41;101697.42;1751444;80;21234;-72
2021/03/25 04:10:23;;;;;;;80.97;44.77;;;;;;;1.73;77.47;101697.55;1751273;81;21197;-73
2021/03/25 04:12:53;;;;;;;77.17;44.80;;;;;;;1.73;77.49;101699.25;1751323;80;21146;-73
2021/03/25 04:15:30;;;;;;;86.05;47.45;;;;;;;1.72;77.48;101689.23;1751277;81;22332;-73
2021/03/25 04:18:08;;;;;;;99.07;48.90;;;;;;;1.73;77.59;101683.67;1751721;80;21651;-73
2021/03/25 04:20:36;;;;;;;85.03;45.30;;;;;;;1.77;77.61;101687.41;1750758;81;21213;-73
2021/03/25 04:23:07;;;;;;;87.08;47.15;;;;;;;1.78;77.61;101687.50;1751387;81;21146;-80
2021/03/25 04:25:49;;;;;;;84.52;47.30;;;;;;;1.80;77.60;101686.31;1751414;80;21161;-72
2021/03/25 04:28:34;;;;;;;85.12;45.28;;;;;;;1.85;77.67;101689.77;1751212;81;21201;-72
2021/03/25 04:31:03;;;;;;;83.37;45.52;;;;;;;1.87;77.61;101686.89;1751647;81;21543;-73
2021/03/25 04:33:31;;;;;;;83.58;47.13;;;;;;;1.87;77.72;101686.89;1751237;80;21229;-73
2021/03/25 04:36:00;;;;;;;80.28;46.37;;;;;;;1.91;77.78;101682.43;1751266;81;21126;-74
2021/03/25 04:38:48;;;;;;;87.53;46.55;;;;;;;1.98;77.80;101680.31;1751174;81;21191;-74
2021/03/25 04:41:23;;;;;;;83.10;45.38;;;;;;;2.01;77.76;101684.42;1735919;81;21585;-73
2021/03/25 04:43:59;;;;;;;80.75;44.73;;;;;;;2.07;77.80;101685.79;1751242;81;21154;-73
2021/03/25 04:47:05;;;;;;;82.70;46.25;;;;;;;2.13;77.76;101677.55;1750957;81;21202;-72
2021/03/25 04:49:41;;;;;;;82.57;45.78;;;;;;;2.22;77.89;101679.53;1751324;81;21167;-72
2021/03/25 04:52:24;;;;;;;78.52;45.78;;;;;;;2.43;77.98;101680.59;1751292;81;22257;-73
2021/03/25 04:54:51;;;;;;;80.80;48.48;;;;;;;2.65;78.14;101677.45;1751317;80;21884;-72
2021/03/25 04:57:37;;;;;;;81.42;46.65;;;;;;;2.98;78.19;101674.52;1751133;81;21253;-72
2021/03/25 05:00:10;;;;;;;80.47;45.00;;;;;;;3.31;78.26;101675.98;1751225;80;21162;-71
2021/03/25 05:02:38;;;;;;;90.25;49.15;;;;;;;3.71;78.12;101660.46;1751094;81;21194;-72
2021/03/25 05:05:07;;;;;;;79.70;45.70;;;;;;;3.99;77.58;101673.63;1751121;80;21132;-71
2021/03/25 05:07:37;;;;;;;81.45;46.65;;;;;;;4.12;76.84;101670.54;1769771;80;21955;-71
2021/03/25 05:10:25;;;;;;;79.60;47.53;;;;;;;4.12;76.33;101671.43;1754404;80;21204;-72
2021/03/25 05:12:54;;;;;;;79.05;47.62;;;;;;;4.16;76.18;101669.94;1782368;80;21211;-72
2021/03/25 05:15:21;;;;;;;80.30;47.58;;;;;;;4.20;76.05;101670.22;1748809;80;21562;-72
2021/03/25 05:18:03;;;;;;;83.05;48.52;;;;;;;4.27;75.96;101670.23;1748644;82;21117;-72
2021/03/25 05:20:52;;;;;;;88.05;49.20;;;;;;;4.34;75.85;101676.34;1748622;82;21989;-72
2021/03/25 05:23:47;;;;;;;73.40;45.98;;;;;;;4.46;75.75;101669.71;1810500;78;22609;-76
2021/03/25 05:26:23;;;;;;;73.50;45.43;;;;;;;4.46;75.61;101672.32;1763067;79;21219;-73
2021/03/25 05:29:01;;;;;;;78.37;45.75;;;;;;;4.47;75.46;101673.73;1796501;79;21896;-74
2021/03/25 05:31:29;;;;;;;80.17;48.30;;;;;;;4.46;75.25;101676.23;1781096;79;21673;-74
2021/03/25 05:33:58;;;;;;;68.30;44.67;;;;;;;4.39;75.14;101673.65;1731872;82;21554;-73
2021/03/25 05:36:25;;;;;;;75.92;48.52;;;;;;;4.34;75.14;101671.14;1755055;81;21144;-73
2021/03/25 05:38:54;;;;;;;72.65;46.68;;;;;;;4.28;75.17;101665.53;1755339;81;21153;-73
2021/03/25 05:41:51;;;;;;;76.02;48.35;;;;;;;4.25;75.24;101673.14;1755155;81;22944;-73
2021/03/25 05:44:41;;;;;;;79.50;48.20;;;;;;;4.22;75.30;101670.33;1748090;81;21666;-73
2021/03/25 05:47:29;;;;;;;75.45;47.03;;;;;;;4.22;75.40;101670.33;1753581;81;21232;-74
2021/03/25 05:50:30;;;;;;;73.92;45.88;;;;;;;4.29;75.62;101673.42;1755102;81;21149;-75
2021/03/25 05:53:20;;;;;;;72.40;45.92;;;;;;;4.42;75.70;101672.52;1754980;81;21199;-73
2021/03/25 05:56:04;;;;;;;81.20;47.73;;;;;;;4.52;75.61;101675.31;1755212;81;22161;-73
2021/03/25 05:58:36;;;;;;;79.35;48.23;;;;;;;4.63;75.64;101674.70;1755057;81;21255;-74
2021/03/25 06:01:29;;;;;;;79.80;48.05;;;;;;;4.75;75.60;101674.20;1752928;81;21152;-72
2021/03/25 06:04:10;;;;;;;77.65;48.60;;;;;;;4.87;75.54;101676.25;1755092;81;21223;-74
2021/03/25 06:06:42;;;;;;;209.15;102.67;;;;;;;5.01;75.50;101673.59;1749498;81;21148;-73
2021/03/25 06:09:43;;;;;;;104.97;65.67;;;;;;;5.14;75.42;101674.86;1755278;81;21838;-74
2021/03/25 06:12:52;;;;;;;81.32;52.25;;;;;;;5.26;75.30;101673.42;1760705;79;21239;-73
2021/03/25 06:16:09;;;;;;;83.40;52.27;;;;;;;5.39;75.21;101671.16;1765989;79;21555;-72
2021/03/25 06:19:13;;;;;;;82.50;53.28;;;;;;;5.49;75.06;101674.81;1754956;81;21211;-72
2021/03/25 06:22:05;;;;;;;84.80;53.50;;;;;;;5.61;75.05;101678.56;1755700;79;21675;-72
2021/03/25 06:24:58;;;;;;;83.95;52.45;;;;;;;5.76;74.93;101678.19;1748348;81;21965;-73
2021/03/25 06:27:59;;;;;;;83.27;51.53;;;;;;;5.87;74.82;101680.52;1749286;80;21126;-72
2021/03/25 06:30:34;;;;;;;87.60;52.60;;;;;;;5.97;74.69;101679.89;1718585;81;21198;-72
2021/03/25 06:33:23;;;;;;;76.33;50.45;;;;;;;6.07;74.52;101671.28;1730211;81;21194;-74
2021/03/25 06:35:56;;;;;;;80.45;50.95;;;;;;;6.16;74.42;101677.94;1730929;82;21187;-73
2021/03/25 06:38:33;;;;;;;80.38;49.83;;;;;;;6.26;74.42;101683.27;1731156;82;27138;-72
2021/03/25 06:41:06;;;;;;;78.25;49.48;;;;;;;6.38;74.39;101676.53;1731039;82;21249;-72
2021/03/25 06:43:44;;;;;;;84.20;51.48;;;;;;;6.49;74.20;101678.03;1730949;82;21245;-72
2021/03/25 06:46:22;;;;;;;72.85;48.70;;;;;;;6.58;74.11;101680.28;1731291;81;21171;-73
2021/03/25 06:48:59;;;;;;;75.57;48.23;;;;;;;6.68;73.95;101680.00;1694050;83;21390;-71
2021/03/25 06:51:32;;;;;;;78.33;49.18;;;;;;;6.78;73.90;101679.67;1756035;81;21910;-72
2021/03/25 06:54:24;;;;;;;73.65;49.80;;;;;;;6.91;73.85;101679.95;1756084;81;21641;-72
2021/03/25 06:56:54;;;;;;;73.60;48.98;;;;;;;7.06;73.76;101682.50;1756213;81;21223;-72
2021/03/25 06:59:32;;;;;;;87.35;54.25;;;;;;;7.23;73.53;101682.52;1722445;81;21175;-72
2021/03/25 07:02:27;;;;;;;86.78;53.58;;;;;;;7.32;73.31;101677.35;1755967;80;21224;-72
2021/03/25 07:04:59;;;;;;;90.70;55.78;;;;;;;7.44;73.09;101681.02;1736827;81;21902;-72
2021/03/25 07:07:32;;;;;;;79.45;51.65;;;;;;;7.57;72.80;101675.59;1755042;81;21614;-72
2021/03/25 07:09:59;;;;;;;70.65;50.33;;;;;;;7.67;72.56;101683.52;1755346;81;21701;-72
2021/03/25 07:12:35;;;;;;;73.07;47.27;;;;;;;7.78;72.48;101688.01;1754635;81;21129;-73
2021/03/25 07:15:04;;;;;;;69.85;48.80;;;;;;;7.89;72.40;101684.63;1755778;81;21217;-72
2021/03/25 07:17:39;;;;;;;72.45;48.78;;;;;;;8.04;72.24;101680.16;1756096;81;22832;-72
2021/03/25 07:20:30;;;;;;;73.80;49.73;;;;;;;8.14;71.93;101685.44;1774498;80;21227;-73
2021/03/25 07:23:12;;;;;;;75.97;47.17;;;;;;;8.25;71.72;101682.05;1767695;78;21241;-72
2021/03/25 07:25:44;;;;;;;71.02;47.30;;;;;;;8.38;71.58;101685.76;1753021;80;21273;-72
2021/03/25 07:28:23;;;;;;;68.78;48.60;;;;;;;8.50;71.35;101677.22;1786225;80;21218;-73
2021/03/25 07:30:57;;;;;;;70.25;47.85;;;;;;;8.65;71.26;101681.38;1786933;80;21822;-73
2021/03/25 07:33:29;;;;;;;72.37;48.45;;;;;;;8.85;71.10;101676.66;1786837;80;21131;-74
2021/03/25 07:36:11;;;;;;;72.80;51.10;;;;;;;9.00;70.77;101680.41;1750015;80;21062;-72
2021/03/25 07:38:39;;;;;;;73.22;51.45;;;;;;;9.11;70.55;101679.61;1756150;80;21190;-72
2021/03/25 07:41:26;;;;;;;80.03;52.20;;;;;;;9.25;70.31;101671.03;1756213;81;21174;-72
2021/03/25 07:44:06;;;;;;;80.15;53.63;;;;;;;9.33;69.97;101674.92;1756011;81;21840;-71
2021/03/25 07:46:47;;;;;;;72.72;50.55;;;;;;;9.39;69.83;101671.23;1756039;80;21213;-73
2021/03/25 07:49:19;;;;;;;69.75;48.40;;;;;;;9.45;69.49;101672.81;1727059;78;21229;-73
2021/03/25 07:52:05;;;;;;;68.87;49.38;;;;;;;9.49;69.32;101673.43;1776104;80;21160;-73
2021/03/25 07:54:40;;;;;;;79.17;51.25;;;;;;;9.53;69.18;101672.77;1779231;80;21249;-73
2021/03/25 07:57:19;;;;;;;71.85;47.62;;;;;;;9.54;68.96;101667.97;1786714;80;21801;-73
2021/03/25 07:59:51;;;;;;;70.40;47.83;;;;;;;9.54;68.70;101668.39;1780043;80;21563;-73
2021/03/25 08:02:34;;;;;;;66.80;47.83;;;;;;;9.56;68.74;101672.41;1780339;80;21242;-72
2021/03/25 08:05:24;;;;;;;77.22;52.83;;;;;;;9.62;68.70;101671.36;1780487;80;21177;-72
2021/03/25 08:07:54;;;;;;;66.90;47.75;;;;;;;9.72;68.54;101669.59;1748318;80;21182;-73
2021/03/25 08:10:37;;;;;;;65.03;47.27;;;;;;;9.78;68.31;101663.30;1748088;81;21989;-73
2021/03/25 08:13:21;;;;;;;63.98;45.43;;;;;;;9.86;68.20;101659.69;1756036;80;21168;-73
2021/03/25 08:16:07;;;;;;;73.12;46.53;;;;;;;9.91;68.00;101662.99;1713356;83;21291;-72
2021/03/25 08:19:01;;;;;;;69.32;44.20;;;;;;;9.98;67.90;101665.44;1723353;83;21258;-72
2021/03/25 08:21:54;;;;;;;71.65;47.78;;;;;;;10.03;67.59;101665.23;1723751;83;21215;-72
2021/03/25 08:24:42;;;;;;;65.28;44.27;;;;;;;10.05;67.39;101666.62;1692574;83;22016;-73
2021/03/25 08:27:29;;;;;;;66.12;46.40;;;;;;;10.08;67.24;101671.59;1705802;83;21172;-72
2021/03/25 08:30:30;;;;;;;64.75;46.45;;;;;;;10.15;67.10;101667.89;1661953;86;21167;-73
2021/03/25 08:33:40;;;;;;;60.40;43.52;;;;;;;10.19;66.94;101663.23;1660645;86;21197;-70
2021/03/25 08:36:18;;;;;;;59.40;42.23;;;;;;;10.24;66.79;101673.53;1661752;86;21268;-73
2021/03/25 08:39:12;;;;;;;65.40;47.25;;;;;;;10.25;66.48;101674.92;1673892;84;21903;-72
2021/03/25 08:41:44;;;;;;;75.12;47.70;;;;;;;10.31;66.50;101672.98;1688528;84;21191;-72
2021/03/25 08:44:36;;;;;;;63.83;47.10;;;;;;;10.44;66.53;101665.17;1693149;84;21251;-72
2021/03/25 08:47:14;;;;;;;65.30;45.33;;;;;;;10.66;66.68;101669.53;1693111;84;21203;-73
2021/03/25 08:50:08;;;;;;;64.25;46.98;;;;;;;10.93;66.48;101669.72;1693024;84;21187;-72
2021/03/25 08:52:36;;;;;;;63.87;45.03;;;;;;;11.12;65.82;101666.05;1702763;83;21973;-72
2021/03/25 08:55:31;;;;;;;60.78;44.40;;;;;;;11.38;65.74;101663.05;1733822;82;21234;-71
2021/03/25 08:58:02;;;;;;;58.35;42.30;;;;;;;11.62;65.60;101659.09;1757428;81;21586;-72
2021/03/25 09:00:32;;;;;;;63.58;45.03;;;;;;;11.94;64.96;101663.73;1734776;81;21211;-71
2021/03/25 09:03:05;;;;;;;61.28;45.73;;;;;;;12.11;64.69;101666.50;1691581;84;21127;-72
2021/03/25 09:05:40;;;;;;;60.03;44.23;;;;;;;12.39;64.52;101660.81;1720346;83;22865;-71
2021/03/25 09:08:16;;;;;;;63.38;47.95;;;;;;;12.66;64.33;101662.09;1720057;83;21179;-71
2021/03/25 09:10:50;;;;;;;68.42;48.25;;;;;;;12.81;63.77;101656.38;1707406;84;21243;-71
2021/03/25 09:13:24;;;;;;;77.10;53.70;;;;;;;12.96;63.35;101655.52;1723777;81;21677;-72
2021/03/25 09:15:52;;;;;;;69.45;47.70;;;;;;;13.07;63.02;101657.59;1763049;81;21179;-72
2021/03/25 09:18:24;;;;;;;67.47;46.95;;;;;;;13.18;62.73;101662.77;1767612;81;21960;-73
2021/03/25 09:20:56;;;;;;;69.62;49.45;;;;;;;13.23;62.38;101663.38;1767781;81;21364;-73
2021/03/25 09:23:35;;;;;;;73.90;50.90;;;;;;;13.35;62.27;101661.53;1751759;81;21248;-72
2021/03/25 09:26:12;;;;;;;69.97;52.13;;;;;;;13.44;61.71;101663.55;1742125;81;21182;-73
2021/03/25 09:29:05;;;;;;;72.72;51.95;;;;;;;13.44;61.57;101662.62;1729810;81;21649;-73
2021/03/25 09:31:39;;;;;;;68.75;50.35;;;;;;;13.50;61.37;101654.45;1753834;81;22707;-73
2021/03/25 09:34:15;;;;;;;;;;;;;;;13.64;61.40;101656.57;1749616;81;21211;-72
2021/03/25 09:36:45;;;;;;;63.00;43.87;;;;;;;13.67;60.79;101648.30;1735215;81;20724;-73
2021/03/25 09:39:26;;;;;;;62.10;47.13;;;;;;;13.65;60.48;101647.80;1708599;83;21243;-73
2021/03/25 09:41:55;;;;;;;64.67;46.80;;;;;;;13.58;60.32;101646.28;1713336;82;21166;-73
2021/03/25 09:44:33;;;;;;;80.57;57.33;;;;;;;13.52;60.33;101648.77;1703501;84;21833;-73
2021/03/25 09:47:20;;;;;;;98.92;66.95;;;;;;;13.52;60.32;101649.20;1703472;84;21235;-72
2021/03/25 09:50:17;;;;;;;75.67;54.55;;;;;;;13.53;59.88;101650.98;1710595;82;21258;-72
2021/03/25 09:52:47;;;;;;;59.53;46.42;;;;;;;13.59;59.83;101644.55;1715548;83;21691;-73
2021/03/25 09:55:16;;;;;;;60.67;44.83;;;;;;;13.60;59.45;101650.30;1723647;81;21215;-73
2021/03/25 09:57:44;;;;;;;54.18;42.30;;;;;;;13.59;59.32;101649.84;1707577;84;21901;-72
2021/03/25 10:00:27;;;;;;;56.08;42.08;;;;;;;13.64;59.32;101645.55;1713585;82;21648;-72
2021/03/25 10:05:41;;;;;;;60.63;50.43;;;;;;;13.89;58.92;101640.90;1872132;76;28416;-72
2021/03/25 10:08:20;;;;;;;50.17;40.55;;;;;;;13.97;58.92;101648.19;1852558;77;21633;-72
2021/03/25 10:11:00;;;;;;;58.38;44.83;;;;;;;13.99;58.60;101648.23;1825884;78;21777;-73
2021/03/25 10:13:43;;;;;;;58.50;45.17;;;;;;;13.91;58.13;101638.78;1832962;77;21189;-71
2021/03/25 10:16:42;;;;;;;54.70;42.15;;;;;;;13.84;58.19;101640.80;1842799;77;21222;-71
2021/03/25 10:19:11;;;;;;;55.35;39.75;;;;;;;13.81;58.10;101635.41;1842694;77;21703;-71
2021/03/25 10:22:01;;;;;;;56.77;43.92;;;;;;;13.83;57.93;101632.38;1842701;77;21162;-73
2021/03/25 10:24:42;;;;;;;55.52;42.83;;;;;;;13.83;57.86;101629.73;1843131;75;22789;-71
2021/03/25 10:27:31;;;;;;;59.93;45.90;;;;;;;13.86;57.70;101635.55;1850709;76;21126;-69
2021/03/25 10:30:32;;;;;;;62.03;49.98;;;;;;;13.90;57.66;101639.63;1856764;77;21494;-69
2021/03/25 10:33:01;;;;;;;62.05;50.03;;;;;;;14.11;58.03;101631.31;1856714;77;21047;-70
2021/03/25 10:35:32;;;;;;;68.07;55.10;;;;;;;14.41;57.74;101638.21;1826327;77;21596;-69
2021/03/25 10:38:06;;;;;;;51.63;41.80;;;;;;;14.65;57.44;101631.30;1822936;78;21874;-69
2021/03/25 10:40:39;;;;;;;51.37;38.17;;;;;;;14.78;56.94;101632.47;1833374;76;21177;-70
2021/03/25 10:43:16;;;;;;;43.73;37.27;;;;;;;14.81;56.84;101628.56;1820565;76;21558;-70
2021/03/25 10:45:51;;;;;;;49.98;37.78;;;;;;;14.94;56.74;101622.66;1848181;77;21731;-69
2021/03/25 10:48:32;;;;;;;43.98;36.68;;;;;;;14.98;56.25;101627.59;1838851;75;21154;-70
2021/03/25 10:51:16;;;;;;;47.50;38.40;;;;;;;14.99;56.05;101633.34;1824426;77;21878;-69
2021/03/25 10:53:50;;;;;;;46.25;35.68;;;;;;;15.05;55.91;101630.81;1839225;77;21628;-70
2021/03/25 10:56:20;;;;;;;44.20;33.88;;;;;;;15.21;55.76;101629.83;1823122;78;21190;-70
2021/03/25 10:59:02;;;;;;;42.43;34.85;;;;;;;15.39;55.64;101623.97;1845428;76;21206;-70
2021/03/25 11:01:30;;;;;;;42.95;34.70;;;;;;;15.47;55.37;101623.27;1848151;77;21671;-69
2021/03/25 11:03:58;;;;;;;46.42;34.30;;;;;;;15.59;55.35;101621.26;1847976;75;21870;-69
2021/03/25 11:06:32;;;;;;;46.75;34.88;;;;;;;15.71;54.99;101621.50;1848156;77;21570;-69
2021/03/25 11:09:28;;;;;;;60.75;47.13;;;;;;;15.70;54.70;101621.02;1848504;76;21036;-69
2021/03/25 11:12:15;;;;;;;56.02;40.25;;;;;;;15.72;54.46;101622.38;1842805;75;21111;-69
2021/03/25 11:14:48;;;;;;;48.52;38.25;;;;;;;15.65;54.28;101618.70;1858504;76;21180;-69
2021/03/25 11:17:34;;;;;;;49.18;37.80;;;;;;;15.74;54.31;101620.67;1882260;76;21854;-70
2021/03/25 11:20:05;;;;;;;46.70;37.53;;;;;;;15.68;53.72;101611.25;1882184;76;21176;-70
2021/03/25 11:22:32;;;;;;;46.15;36.23;;;;;;;15.61;53.92;101610.23;1804989;79;21216;-69
2021/03/25 11:25:02;;;;;;;42.50;33.08;;;;;;;15.57;53.72;101611.49;1767503;81;21206;-70
2021/03/25 11:27:29;;;;;;;42.05;33.98;;;;;;;15.34;53.12;101613.28;1767110;79;21216;-69
2021/03/25 11:30:08;;;;;;;45.88;34.10;;;;;;;15.19;53.24;101609.91;1767487;81;22719;-69
2021/03/25 11:32:42;;;;;;;47.17;34.55;;;;;;;15.01;53.21;101608.20;1775227;78;21585;-69
2021/03/25 11:35:30;;;;;;;47.95;35.92;;;;;;;14.85;53.43;101597.28;1783546;80;21139;-71
2021/03/25 11:37:59;;;;;;;54.38;38.70;;;;;;;14.76;53.45;101599.30;1775138;80;21151;-70
2021/03/25 11:40:39;;;;;;;47.20;37.42;;;;;;;14.69;53.63;101592.51;1756768;80;21647;-70
2021/03/25 11:43:10;;;;;;;52.60;36.70;;;;;;;14.69;53.63;101597.81;1780950;80;21949;-69
2021/03/25 11:45:45;;;;;;;52.88;38.35;;;;;;;14.65;53.73;101595.96;1783068;79;21653;-70
2021/03/25 11:48:25;;;;;;;47.00;37.45;;;;;;;14.63;53.52;101599.02;1785911;78;21144;-70
2021/03/25 11:50:51;;;;;;;48.25;36.68;;;;;;;14.67;53.83;101592.47;1798860;79;21205;-70
2021/03/25 11:53:35;;;;;;;47.75;35.17;;;;;;;14.81;53.90;101592.78;1799027;79;21680;-71
2021/03/25 11:56:02;;;;;;;44.67;33.78;;;;;;;14.96;53.73;101589.56;1799193;79;21881;-70
2021/03/25 11:58:29;;;;;;;50.83;34.92;;;;;;;15.16;53.57;101581.58;1798791;79;21183;-71
2021/03/25 12:01:11;;;;;;;43.40;34.40;;;;;;;15.25;53.20;101575.53;1798987;79;21138;-71
2021/03/25 12:03:50;;;;;;;43.10;35.68;;;;;;;15.24;52.92;101575.50;1798571;79;21462;-70
2021/03/25 12:06:33;;;;;;;41.37;33.30;;;;;;;15.22;52.68;101573.25;1797232;79;21171;-71